DW7431 Cala Millor ES current weather conditions

sailwx.info

Wind from 225 at 1 knots gusting 2

Air temperature 25.6° C
Dewpoint 21.4° C

Last reported at 2014-Sep-19 22:01 UTC.
Time now 2014-Sep-19 23:56 UTC

Location: N 39°36' E 003°22'.
View on Google Maps.

See reports from other nearby stations

  
Tides and Currents Weather Stations Pressure Air Temp Water Temp Dewpoint Dewpoint Depression Visibility Wind Speed Wind Dir Waves Ship Positions
date/time (UTC)wind fromknots sea level pressurealtimeterstation pressurevisibilityair tempwater tempwave heightnotes
2014-Sep-19 22:01 225 1 gusting 2 25.6
2014-Sep-19 21:02 225 0 gusting 2 26.1
2014-Sep-19 20:02 315 26.7
2014-Sep-19 18:02 247 4 gusting 4 27.2
2014-Sep-19 17:02 225 9 gusting 8 27.8
2014-Sep-19 15:02 202 10 gusting 13 29.4
2014-Sep-19 14:02 202 13 gusting 19 30.6
2014-Sep-19 13:02 225 11 gusting 17 31.1
2014-Sep-19 12:02 180 8 gusting 13 30.6
2014-Sep-19 11:01 202 7 gusting 12 30.0
2014-Sep-19 09:02 315 2 gusting 3 28.3
2014-Sep-19 07:02 270 0 gusting 1 23.9
2014-Sep-19 04:02 337 6 gusting 9 23.9
2014-Sep-19 03:02 180 1 gusting 1 23.9
2014-Sep-19 00:01 315 3 gusting 5 24.4
2014-Sep-18 23:02 315 4 gusting 4 24.4
2014-Sep-18 22:01 315 2 gusting 3 25.0
2014-Sep-18 20:01 292 3 gusting 3 25.6
2014-Sep-18 16:01 225 9 gusting 13 28.3
2014-Sep-18 14:01 202 10 gusting 9 30.0
2014-Sep-18 12:02 180 10 gusting 17 30.6
2014-Sep-18 09:01 180 6 gusting 6 28.3
2014-Sep-18 07:01 180 25.0
2014-Sep-18 06:01 292 0 23.3
2014-Sep-18 04:01 315 4 gusting 4 23.9
2014-Sep-18 03:01 247 3 gusting 4 23.9
2014-Sep-18 02:01 337 5 gusting 9 24.4
2014-Sep-18 01:01 315 2 gusting 1 25.0